Fort Steele, Canada
Current Conditions -  °F | °C
As of 8:00 PM on Friday 19 Dec 2014 (Local Time) from CYXC Reporting Station
Broken Clouds Broken Clouds  
Wind Chill: 29°   Ceiling: 14000
Heat Index: 36°   Visibility: 20mi
Dew Point: 28°   Wind: 8mph
Humidity: 75%   Direction: 170°S
Pressure: 29.83"   Gusts: NA
Location:  49.62°N, 115.63°W
Report Text: CYXC 200300Z 17007KT 20SM FEW070 BKN140 BKN200 02/M02 A2983 RMK AC2AC3CI2 SLP129
Loading
Personal Weather Stations






























Interactive Weather Map New forecast layout! Learn more

10-Day Weather Forecast

Advertisements
Track Severe Weather on mobile